sensor_id;sensor_type;location;lat;lon;timestamp;pressure;altitude;pressure_sealevel;temperature;humidity
7297;BME280;40758;54.038;11.684;2023-08-24T00:00:53;101689.78;;;16.36;100.00
7297;BME280;40758;54.038;11.684;2023-08-24T00:03:20;101661.75;;;16.22;100.00
7297;BME280;40758;54.038;11.684;2023-08-24T00:05:49;101675.69;;;16.32;100.00
7297;BME280;40758;54.038;11.684;2023-08-24T00:08:17;101672.50;;;16.35;100.00
7297;BME280;40758;54.038;11.684;2023-08-24T00:10:45;101678.31;;;16.39;100.00
7297;BME280;40758;54.038;11.684;2023-08-24T00:13:20;101666.78;;;16.37;100.00
7297;BME280;40758;54.038;11.684;2023-08-24T00:15:48;101670.09;;;16.39;100.00
7297;BME280;40758;54.038;11.684;2023-08-24T00:18:15;101668.19;;;16.39;100.00
7297;BME280;40758;54.038;11.684;2023-08-24T00:20:44;101665.44;;;16.39;100.00
7297;BME280;40758;54.038;11.684;2023-08-24T00:23:12;101662.72;;;16.39;100.00
7297;BME280;40758;54.038;11.684;2023-08-24T00:25:42;101664.63;;;16.39;100.00
7297;BME280;40758;54.038;11.684;2023-08-24T00:28:09;101665.94;;;16.36;100.00
7297;BME280;40758;54.038;11.684;2023-08-24T00:30:37;101657.22;;;16.28;100.00
7297;BME280;40758;54.038;11.684;2023-08-24T00:33:10;101659.00;;;16.22;100.00
7297;BME280;40758;54.038;11.684;2023-08-24T00:35:39;101651.38;;;16.12;100.00
7297;BME280;40758;54.038;11.684;2023-08-24T00:38:06;101650.63;;;16.05;100.00
7297;BME280;40758;54.038;11.684;2023-08-24T00:40:33;101633.09;;;15.83;100.00
7297;BME280;40758;54.038;11.684;2023-08-24T00:43:04;101644.13;;;15.76;100.00
7297;BME280;40758;54.038;11.684;2023-08-24T00:45:32;101652.94;;;15.66;100.00
7297;BME280;40758;54.038;11.684;2023-08-24T00:48:02;101642.28;;;15.58;100.00
7297;BME280;40758;54.038;11.684;2023-08-24T00:50:31;101654.47;;;15.62;100.00
7297;BME280;40758;54.038;11.684;2023-08-24T00:53:00;101650.97;;;15.55;100.00
7297;BME280;40758;54.038;11.684;2023-08-24T00:55:31;101655.31;;;15.44;100.00
7297;BME280;40758;54.038;11.684;2023-08-24T00:57:58;101641.44;;;15.28;100.00
7297;BME280;40758;54.038;11.684;2023-08-24T01:00:26;101647.00;;;15.21;100.00
7297;BME280;40758;54.038;11.684;2023-08-24T01:02:56;101651.72;;;15.14;100.00
7297;BME280;40758;54.038;11.684;2023-08-24T01:05:23;101655.38;;;15.08;100.00
7297;BME280;40758;54.038;11.684;2023-08-24T01:07:52;101631.22;;;14.86;100.00
7297;BME280;40758;54.038;11.684;2023-08-24T01:10:35;101656.97;;;14.97;100.00
7297;BME280;40758;54.038;11.684;2023-08-24T01:13:08;101645.72;;;15.05;100.00
7297;BME280;40758;54.038;11.684;2023-08-24T01:18:29;101663.19;;;15.23;100.00
7297;BME280;40758;54.038;11.684;2023-08-24T01:20:57;101662.44;;;15.15;100.00
7297;BME280;40758;54.038;11.684;2023-08-24T01:26:20;101670.19;;;15.00;100.00
7297;BME280;40758;54.038;11.684;2023-08-24T01:28:48;101676.19;;;14.90;100.00
7297;BME280;40758;54.038;11.684;2023-08-24T01:31:16;101679.59;;;14.86;100.00
7297;BME280;40758;54.038;11.684;2023-08-24T01:33:44;101682.94;;;14.88;100.00
7297;BME280;40758;54.038;11.684;2023-08-24T01:36:14;101678.16;;;14.83;100.00
7297;BME280;40758;54.038;11.684;2023-08-24T01:38:54;101674.66;;;14.76;100.00
7297;BME280;40758;54.038;11.684;2023-08-24T01:41:28;101680.63;;;14.67;100.00
7297;BME280;40758;54.038;11.684;2023-08-24T01:43:58;101690.44;;;14.56;100.00
7297;BME280;40758;54.038;11.684;2023-08-24T01:46:26;101679.97;;;14.46;100.00
7297;BME280;40758;54.038;11.684;2023-08-24T01:48:55;101687.41;;;14.39;100.00
7297;BME280;40758;54.038;11.684;2023-08-24T01:51:23;101687.91;;;14.29;100.00
7297;BME280;40758;54.038;11.684;2023-08-24T01:53:51;101684.72;;;14.32;100.00
7297;BME280;40758;54.038;11.684;2023-08-24T01:56:19;101691.63;;;14.35;100.00
7297;BME280;40758;54.038;11.684;2023-08-24T01:58:46;101675.47;;;14.33;100.00
7297;BME280;40758;54.038;11.684;2023-08-24T02:01:18;101682.53;;;14.41;100.00
7297;BME280;40758;54.038;11.684;2023-08-24T02:03:44;101682.66;;;14.28;100.00
7297;BME280;40758;54.038;11.684;2023-08-24T02:06:15;101673.47;;;14.22;100.00
7297;BME280;40758;54.038;11.684;2023-08-24T02:08:42;101685.63;;;14.26;100.00
7297;BME280;40758;54.038;11.684;2023-08-24T02:11:13;101677.38;;;14.33;100.00
7297;BME280;40758;54.038;11.684;2023-08-24T02:13:41;101673.88;;;14.19;100.00
7297;BME280;40758;54.038;11.684;2023-08-24T02:16:10;101684.22;;;14.17;100.00
7297;BME280;40758;54.038;11.684;2023-08-24T02:18:40;101684.88;;;14.13;100.00
7297;BME280;40758;54.038;11.684;2023-08-24T02:21:09;101675.91;;;14.05;100.00
7297;BME280;40758;54.038;11.684;2023-08-24T02:23:38;101675.50;;;14.02;100.00
7297;BME280;40758;54.038;11.684;2023-08-24T02:26:06;101673.59;;;14.02;100.00
7297;BME280;40758;54.038;11.684;2023-08-24T02:28:36;101674.91;;;14.25;100.00
7297;BME280;40758;54.038;11.684;2023-08-24T02:31:05;101685.03;;;14.18;100.00
7297;BME280;40758;54.038;11.684;2023-08-24T02:33:32;101674.84;;;14.06;100.00
7297;BME280;40758;54.038;11.684;2023-08-24T02:35:59;101684.50;;;14.09;100.00
7297;BME280;40758;54.038;11.684;2023-08-24T02:38:27;101682.13;;;14.13;100.00
7297;BME280;40758;54.038;11.684;2023-08-24T02:41:04;101685.88;;;14.43;100.00
7297;BME280;40758;54.038;11.684;2023-08-24T02:43:32;101684.16;;;14.49;100.00
7297;BME280;40758;54.038;11.684;2023-08-24T02:46:08;101677.03;;;14.48;100.00
7297;BME280;40758;54.038;11.684;2023-08-24T02:48:36;101682.91;;;14.51;100.00
7297;BME280;40758;54.038;11.684;2023-08-24T02:51:04;101683.75;;;14.52;100.00
7297;BME280;40758;54.038;11.684;2023-08-24T02:53:36;101673.19;;;14.55;100.00
7297;BME280;40758;54.038;11.684;2023-08-24T02:56:04;101674.63;;;14.58;100.00
7297;BME280;40758;54.038;11.684;2023-08-24T02:58:31;101675.63;;;14.63;100.00
7297;BME280;40758;54.038;11.684;2023-08-24T03:01:04;101669.94;;;14.65;100.00
7297;BME280;40758;54.038;11.684;2023-08-24T03:03:36;101671.09;;;14.76;100.00
7297;BME280;40758;54.038;11.684;2023-08-24T03:06:05;101677.69;;;14.68;100.00
7297;BME280;40758;54.038;11.684;2023-08-24T03:08:35;101658.09;;;14.46;100.00
7297;BME280;40758;54.038;11.684;2023-08-24T03:11:02;101669.09;;;14.40;100.00
7297;BME280;40758;54.038;11.684;2023-08-24T03:13:33;101671.72;;;14.28;100.00
7297;BME280;40758;54.038;11.684;2023-08-24T03:16:03;101669.09;;;14.15;100.00
7297;BME280;40758;54.038;11.684;2023-08-24T03:18:31;101659.34;;;14.00;100.00
7297;BME280;40758;54.038;11.684;2023-08-24T03:20:58;101650.53;;;13.98;100.00
7297;BME280;40758;54.038;11.684;2023-08-24T03:23:25;101647.59;;;14.00;100.00
7297;BME280;40758;54.038;11.684;2023-08-24T03:25:57;101661.53;;;13.85;100.00
7297;BME280;40758;54.038;11.684;2023-08-24T03:28:24;101653.69;;;13.70;100.00
7297;BME280;40758;54.038;11.684;2023-08-24T03:31:00;101674.44;;;13.71;100.00
7297;BME280;40758;54.038;11.684;2023-08-24T03:33:27;101663.81;;;13.63;100.00
7297;BME280;40758;54.038;11.684;2023-08-24T03:35:58;101657.94;;;13.60;100.00
7297;BME280;40758;54.038;11.684;2023-08-24T03:38:25;101668.06;;;13.52;100.00
7297;BME280;40758;54.038;11.684;2023-08-24T03:41:02;101668.75;;;13.41;100.00
7297;BME280;40758;54.038;11.684;2023-08-24T03:43:34;101674.03;;;13.36;100.00
7297;BME280;40758;54.038;11.684;2023-08-24T03:46:01;101669.41;;;13.37;100.00
7297;BME280;40758;54.038;11.684;2023-08-24T03:48:31;101672.78;;;13.32;100.00
7297;BME280;40758;54.038;11.684;2023-08-24T03:50:59;101668.63;;;13.16;100.00
7297;BME280;40758;54.038;11.684;2023-08-24T03:53:31;101674.91;;;13.10;100.00
7297;BME280;40758;54.038;11.684;2023-08-24T03:55:59;101662.34;;;13.22;100.00
7297;BME280;40758;54.038;11.684;2023-08-24T03:58:26;101662.53;;;13.21;100.00
7297;BME280;40758;54.038;11.684;2023-08-24T04:01:03;101666.50;;;13.25;100.00
7297;BME280;40758;54.038;11.684;2023-08-24T04:03:30;101665.91;;;13.23;100.00
7297;BME280;40758;54.038;11.684;2023-08-24T04:06:00;101671.75;;;13.20;100.00
7297;BME280;40758;54.038;11.684;2023-08-24T04:08:27;101679.09;;;13.19;100.00
7297;BME280;40758;54.038;11.684;2023-08-24T04:10:55;101673.91;;;13.11;100.00
7297;BME280;40758;54.038;11.684;2023-08-24T04:13:25;101677.91;;;13.02;100.00
7297;BME280;40758;54.038;11.684;2023-08-24T04:15:55;101678.53;;;12.97;100.00
7297;BME280;40758;54.038;11.684;2023-08-24T04:18:24;101683.28;;;13.15;100.00
7297;BME280;40758;54.038;11.684;2023-08-24T04:20:52;101679.09;;;13.26;100.00
7297;BME280;40758;54.038;11.684;2023-08-24T04:23:24;101679.09;;;13.26;100.00
7297;BME280;40758;54.038;11.684;2023-08-24T04:25:52;101687.25;;;13.32;100.00
7297;BME280;40758;54.038;11.684;2023-08-24T04:28:20;101683.72;;;13.25;100.00
7297;BME280;40758;54.038;11.684;2023-08-24T04:30:51;101687.91;;;13.21;100.00
7297;BME280;40758;54.038;11.684;2023-08-24T04:33:18;101668.63;;;13.10;100.00
7297;BME280;40758;54.038;11.684;2023-08-24T04:35:47;101688.53;;;13.30;100.00
7297;BME280;40758;54.038;11.684;2023-08-24T04:38:15;101680.94;;;13.32;100.00
7297;BME280;40758;54.038;11.684;2023-08-24T04:40:52;101677.44;;;13.25;100.00
7297;BME280;40758;54.038;11.684;2023-08-24T04:43:21;101679.03;;;13.39;100.00
7297;BME280;40758;54.038;11.684;2023-08-24T04:45:48;101681.59;;;13.34;100.00
7297;BME280;40758;54.038;11.684;2023-08-24T04:48:16;101677.63;;;13.30;100.00
7297;BME280;40758;54.038;11.684;2023-08-24T04:50:44;101687.28;;;13.26;100.00
7297;BME280;40758;54.038;11.684;2023-08-24T04:53:14;101679.09;;;13.19;100.00
7297;BME280;40758;54.038;11.684;2023-08-24T04:55:42;101681.41;;;13.16;100.00
7297;BME280;40758;54.038;11.684;2023-08-24T04:58:10;101682.47;;;13.15;100.00
7297;BME280;40758;54.038;11.684;2023-08-24T05:00:38;101677.03;;;13.08;100.00
7297;BME280;40758;54.038;11.684;2023-08-24T05:03:05;101679.56;;;13.03;100.00
7297;BME280;40758;54.038;11.684;2023-08-24T05:05:33;101674.75;;;12.98;100.00
7297;BME280;40758;54.038;11.684;2023-08-24T05:08:01;101680.44;;;12.97;100.00
7297;BME280;40758;54.038;11.684;2023-08-24T05:10:34;101671.66;;;12.88;100.00
7297;BME280;40758;54.038;11.684;2023-08-24T05:13:01;101680.88;;;12.87;100.00
7297;BME280;40758;54.038;11.684;2023-08-24T05:15:32;101682.94;;;12.92;100.00
7297;BME280;40758;54.038;11.684;2023-08-24T05:17:59;101669.75;;;12.95;100.00
7297;BME280;40758;54.038;11.684;2023-08-24T05:20:27;101678.69;;;13.16;100.00
7297;BME280;40758;54.038;11.684;2023-08-24T05:22:55;101677.00;;;13.28;100.00
7297;BME280;40758;54.038;11.684;2023-08-24T05:25:22;101667.31;;;13.32;100.00
7297;BME280;40758;54.038;11.684;2023-08-24T05:27:49;101676.91;;;13.48;100.00
7297;BME280;40758;54.038;11.684;2023-08-24T05:30:17;101675.59;;;13.57;100.00
7297;BME280;40758;54.038;11.684;2023-08-24T05:32:43;101671.94;;;13.70;100.00
7297;BME280;40758;54.038;11.684;2023-08-24T05:35:10;101672.31;;;13.80;100.00
7297;BME280;40758;54.038;11.684;2023-08-24T05:37:38;101662.13;;;13.94;100.00
7297;BME280;40758;54.038;11.684;2023-08-24T05:40:10;101667.06;;;14.10;100.00
7297;BME280;40758;54.038;11.684;2023-08-24T05:42:36;101674.84;;;14.31;100.00
7297;BME280;40758;54.038;11.684;2023-08-24T05:45:03;101678.72;;;14.49;100.00
7297;BME280;40758;54.038;11.684;2023-08-24T05:47:33;101662.03;;;14.57;100.00
7297;BME280;40758;54.038;11.684;2023-08-24T05:50:00;101680.34;;;14.75;100.00
7297;BME280;40758;54.038;11.684;2023-08-24T05:52:26;101689.72;;;14.85;100.00
7297;BME280;40758;54.038;11.684;2023-08-24T05:54:53;101688.34;;;14.95;100.00
7297;BME280;40758;54.038;11.684;2023-08-24T05:57:20;101692.38;;;15.10;100.00
7297;BME280;40758;54.038;11.684;2023-08-24T05:59:47;101690.50;;;15.41;100.00
7297;BME280;40758;54.038;11.684;2023-08-24T06:02:14;101685.41;;;15.63;100.00
7297;BME280;40758;54.038;11.684;2023-08-24T06:04:41;101683.94;;;15.79;100.00
7297;BME280;40758;54.038;11.684;2023-08-24T06:07:10;101696.38;;;16.05;100.00
7297;BME280;40758;54.038;11.684;2023-08-24T06:09:37;101689.25;;;16.15;100.00
7297;BME280;40758;54.038;11.684;2023-08-24T06:12:04;101691.28;;;16.20;100.00
7297;BME280;40758;54.038;11.684;2023-08-24T06:14:31;101687.47;;;16.21;100.00
7297;BME280;40758;54.038;11.684;2023-08-24T06:16:58;101695.03;;;16.49;100.00
7297;BME280;40758;54.038;11.684;2023-08-24T06:19:25;101690.28;;;16.80;100.00
7297;BME280;40758;54.038;11.684;2023-08-24T06:21:51;101695.56;;;17.21;100.00
7297;BME280;40758;54.038;11.684;2023-08-24T06:24:18;101692.81;;;17.62;100.00
7297;BME280;40758;54.038;11.684;2023-08-24T06:26:45;101687.41;;;17.78;100.00
7297;BME280;40758;54.038;11.684;2023-08-24T06:29:11;101683.34;;;17.81;100.00
7297;BME280;40758;54.038;11.684;2023-08-24T06:31:38;101670.00;;;17.73;100.00
7297;BME280;40758;54.038;11.684;2023-08-24T06:34:05;101667.44;;;17.14;100.00
7297;BME280;40758;54.038;11.684;2023-08-24T06:36:31;101679.13;;;17.10;100.00
7297;BME280;40758;54.038;11.684;2023-08-24T06:38:58;101670.44;;;17.13;100.00
7297;BME280;40758;54.038;11.684;2023-08-24T06:41:25;101659.84;;;17.62;100.00
7297;BME280;40758;54.038;11.684;2023-08-24T06:43:52;101652.28;;;17.80;100.00
7297;BME280;40758;54.038;11.684;2023-08-24T06:46:20;101654.03;;;17.87;100.00
7297;BME280;40758;54.038;11.684;2023-08-24T06:48:48;101654.63;;;17.89;100.00
7297;BME280;40758;54.038;11.684;2023-08-24T06:51:15;101650.78;;;17.61;100.00
7297;BME280;40758;54.038;11.684;2023-08-24T06:53:42;101639.16;;;18.16;100.00
7297;BME280;40758;54.038;11.684;2023-08-24T06:56:10;101628.78;;;18.57;100.00
7297;BME280;40758;54.038;11.684;2023-08-24T06:58:39;101621.91;;;18.76;100.00
7297;BME280;40758;54.038;11.684;2023-08-24T07:01:06;101618.66;;;19.01;100.00
7297;BME280;40758;54.038;11.684;2023-08-24T07:03:33;101627.91;;;19.39;100.00
7297;BME280;40758;54.038;11.684;2023-08-24T07:06:00;101624.88;;;19.62;100.00
7297;BME280;40758;54.038;11.684;2023-08-24T07:08:27;101626.00;;;19.93;100.00
7297;BME280;40758;54.038;11.684;2023-08-24T07:10:53;101615.44;;;20.55;100.00
7297;BME280;40758;54.038;11.684;2023-08-24T07:13:20;101602.31;;;20.77;100.00
7297;BME280;40758;54.038;11.684;2023-08-24T07:15:47;101601.44;;;20.66;100.00
7297;BME280;40758;54.038;11.684;2023-08-24T07:18:16;101606.59;;;20.48;100.00
7297;BME280;40758;54.038;11.684;2023-08-24T07:20:43;101596.09;;;20.50;100.00
7297;BME280;40758;54.038;11.684;2023-08-24T07:23:10;101596.53;;;20.79;100.00
7297;BME280;40758;54.038;11.684;2023-08-24T07:25:37;101606.53;;;20.90;100.00
7297;BME280;40758;54.038;11.684;2023-08-24T07:28:03;101608.50;;;21.05;100.00
7297;BME280;40758;54.038;11.684;2023-08-24T07:30:31;101619.59;;;21.15;100.00
7297;BME280;40758;54.038;11.684;2023-08-24T07:33:01;101619.41;;;21.32;100.00
7297;BME280;40758;54.038;11.684;2023-08-24T07:35:28;101612.25;;;21.46;100.00
7297;BME280;40758;54.038;11.684;2023-08-24T07:37:55;101607.31;;;21.94;100.00
7297;BME280;40758;54.038;11.684;2023-08-24T07:40:22;101618.66;;;21.92;100.00
7297;BME280;40758;54.038;11.684;2023-08-24T07:42:51;101611.75;;;22.20;100.00
7297;BME280;40758;54.038;11.684;2023-08-24T07:45:21;101616.44;;;22.45;100.00
7297;BME280;40758;54.038;11.684;2023-08-24T07:47:47;101607.03;;;22.36;100.00
7297;BME280;40758;54.038;11.684;2023-08-24T07:50:15;101607.56;;;22.48;100.00
7297;BME280;40758;54.038;11.684;2023-08-24T07:52:42;101617.06;;;23.07;100.00
7297;BME280;40758;54.038;11.684;2023-08-24T07:55:09;101601.38;;;22.87;100.00
7297;BME280;40758;54.038;11.684;2023-08-24T07:57:37;101618.63;;;21.62;100.00
7297;BME280;40758;54.038;11.684;2023-08-24T08:00:04;101614.22;;;20.83;100.00
7297;BME280;40758;54.038;11.684;2023-08-24T08:02:35;101611.13;;;21.37;100.00
7297;BME280;40758;54.038;11.684;2023-08-24T08:05:04;101607.88;;;21.91;100.00
7297;BME280;40758;54.038;11.684;2023-08-24T08:07:33;101602.34;;;22.26;100.00
7297;BME280;40758;54.038;11.684;2023-08-24T08:10:00;101598.72;;;22.51;100.00
7297;BME280;40758;54.038;11.684;2023-08-24T08:12:30;101610.16;;;23.09;100.00
7297;BME280;40758;54.038;11.684;2023-08-24T08:14:59;101610.13;;;23.20;100.00
7297;BME280;40758;54.038;11.684;2023-08-24T08:17:26;101607.75;;;23.42;100.00
7297;BME280;40758;54.038;11.684;2023-08-24T08:19:55;101593.50;;;23.15;100.00
7297;BME280;40758;54.038;11.684;2023-08-24T08:22:22;101594.84;;;22.42;100.00
7297;BME280;40758;54.038;11.684;2023-08-24T08:24:49;101600.84;;;21.27;100.00
7297;BME280;40758;54.038;11.684;2023-08-24T08:27:17;101604.38;;;20.50;100.00
7297;BME280;40758;54.038;11.684;2023-08-24T08:29:43;101602.75;;;20.54;100.00
7297;BME280;40758;54.038;11.684;2023-08-24T08:32:10;101591.63;;;20.91;100.00
7297;BME280;40758;54.038;11.684;2023-08-24T08:34:38;101590.31;;;21.14;100.00
7297;BME280;40758;54.038;11.684;2023-08-24T08:37:05;101571.66;;;22.28;100.00
7297;BME280;40758;54.038;11.684;2023-08-24T08:39:32;101578.28;;;23.12;100.00
7297;BME280;40758;54.038;11.684;2023-08-24T08:41:59;101576.47;;;23.36;100.00
7297;BME280;40758;54.038;11.684;2023-08-24T08:44:31;101582.66;;;23.68;100.00
7297;BME280;40758;54.038;11.684;2023-08-24T08:46:58;101585.06;;;23.79;100.00
7297;BME280;40758;54.038;11.684;2023-08-24T08:49:25;101583.03;;;23.90;100.00
7297;BME280;40758;54.038;11.684;2023-08-24T08:51:53;101583.28;;;23.54;100.00
7297;BME280;40758;54.038;11.684;2023-08-24T08:54:20;101573.75;;;23.71;100.00
7297;BME280;40758;54.038;11.684;2023-08-24T08:56:50;101577.94;;;24.02;100.00
7297;BME280;40758;54.038;11.684;2023-08-24T08:59:17;101577.25;;;23.86;100.00
7297;BME280;40758;54.038;11.684;2023-08-24T09:01:45;101572.66;;;23.72;100.00
7297;BME280;40758;54.038;11.684;2023-08-24T09:04:12;101580.78;;;23.53;100.00
7297;BME280;40758;54.038;11.684;2023-08-24T09:06:39;101572.84;;;23.41;100.00
7297;BME280;40758;54.038;11.684;2023-08-24T09:09:06;101580.34;;;23.80;100.00
7297;BME280;40758;54.038;11.684;2023-08-24T09:11:34;101585.00;;;24.48;100.00
7297;BME280;40758;54.038;11.684;2023-08-24T09:14:01;101583.94;;;24.67;100.00
7297;BME280;40758;54.038;11.684;2023-08-24T09:16:31;101572.47;;;24.74;100.00
7297;BME280;40758;54.038;11.684;2023-08-24T09:18:59;101567.19;;;24.97;100.00
7297;BME280;40758;54.038;11.684;2023-08-24T09:21:26;101560.97;;;24.33;100.00
7297;BME280;40758;54.038;11.684;2023-08-24T09:23:54;101561.78;;;24.09;100.00
7297;BME280;40758;54.038;11.684;2023-08-24T09:26:32;101562.97;;;24.27;100.00
7297;BME280;40758;54.038;11.684;2023-08-24T09:29:10;101558.56;;;23.97;100.00
7297;BME280;40758;54.038;11.684;2023-08-24T09:31:39;101567.16;;;24.01;100.00
7297;BME280;40758;54.038;11.684;2023-08-24T09:34:09;101565.25;;;23.62;100.00
7297;BME280;40758;54.038;11.684;2023-08-24T09:36:37;101563.38;;;24.15;100.00
7297;BME280;40758;54.038;11.684;2023-08-24T09:39:04;101567.28;;;24.44;100.00
7297;BME280;40758;54.038;11.684;2023-08-24T09:41:41;101565.66;;;24.85;100.00
7297;BME280;40758;54.038;11.684;2023-08-24T09:44:09;101556.44;;;24.90;100.00
7297;BME280;40758;54.038;11.684;2023-08-24T09:46:39;101543.00;;;24.54;100.00
7297;BME280;40758;54.038;11.684;2023-08-24T09:49:07;101554.84;;;24.84;100.00
7297;BME280;40758;54.038;11.684;2023-08-24T09:51:35;101550.63;;;24.86;100.00
7297;BME280;40758;54.038;11.684;2023-08-24T09:54:07;101557.78;;;25.16;100.00
7297;BME280;40758;54.038;11.684;2023-08-24T09:56:41;101538.81;;;25.56;100.00
7297;BME280;40758;54.038;11.684;2023-08-24T09:59:12;101552.84;;;25.84;100.00
7297;BME280;40758;54.038;11.684;2023-08-24T10:01:45;101543.72;;;25.45;100.00
7297;BME280;40758;54.038;11.684;2023-08-24T10:04:17;101550.69;;;25.81;100.00
7297;BME280;40758;54.038;11.684;2023-08-24T10:06:46;101545.38;;;25.98;100.00
7297;BME280;40758;54.038;11.684;2023-08-24T10:09:22;101559.72;;;25.35;100.00
7297;BME280;40758;54.038;11.684;2023-08-24T10:11:59;101555.06;;;25.49;100.00
7297;BME280;40758;54.038;11.684;2023-08-24T10:14:36;101543.34;;;25.14;100.00
7297;BME280;40758;54.038;11.684;2023-08-24T10:17:08;101557.91;;;25.82;100.00
7297;BME280;40758;54.038;11.684;2023-08-24T10:19:41;101560.22;;;26.07;100.00
7297;BME280;40758;54.038;11.684;2023-08-24T10:22:09;101554.72;;;25.69;100.00
7297;BME280;40758;54.038;11.684;2023-08-24T10:24:36;101558.25;;;25.56;100.00
7297;BME280;40758;54.038;11.684;2023-08-24T10:27:03;101555.53;;;25.89;100.00
7297;BME280;40758;54.038;11.684;2023-08-24T10:29:30;101558.66;;;26.01;100.00
7297;BME280;40758;54.038;11.684;2023-08-24T10:32:01;101565.03;;;25.88;100.00
7297;BME280;40758;54.038;11.684;2023-08-24T10:34:29;101546.38;;;26.02;100.00
7297;BME280;40758;54.038;11.684;2023-08-24T10:36:56;101533.38;;;25.97;99.50
7297;BME280;40758;54.038;11.684;2023-08-24T10:39:27;101544.09;;;25.90;100.00
7297;BME280;40758;54.038;11.684;2023-08-24T10:41:54;101539.91;;;26.20;95.89
7297;BME280;40758;54.038;11.684;2023-08-24T10:44:34;101547.50;;;25.68;96.18
7297;BME280;40758;54.038;11.684;2023-08-24T10:54:56;101550.81;;;25.89;100.00
7297;BME280;40758;54.038;11.684;2023-08-24T10:57:27;101536.41;;;26.01;99.09
7297;BME280;40758;54.038;11.684;2023-08-24T11:00:08;101530.88;;;26.29;100.00
7297;BME280;40758;54.038;11.684;2023-08-24T11:02:51;101525.81;;;26.72;95.39
7297;BME280;40758;54.038;11.684;2023-08-24T11:05:29;101516.28;;;27.37;83.62
7297;BME280;40758;54.038;11.684;2023-08-24T11:08:04;101519.50;;;27.44;100.00
7297;BME280;40758;54.038;11.684;2023-08-24T11:15:49;101508.78;;;27.37;87.60
7297;BME280;40758;54.038;11.684;2023-08-24T11:18:28;101497.78;;;28.17;77.86
7297;BME280;40758;54.038;11.684;2023-08-24T11:21:05;101490.47;;;27.98;80.18
7297;BME280;40758;54.038;11.684;2023-08-24T11:23:33;101481.91;;;27.95;84.58
7297;BME280;40758;54.038;11.684;2023-08-24T11:26:01;101476.28;;;27.86;70.13
7297;BME280;40758;54.038;11.684;2023-08-24T11:28:29;101471.63;;;28.04;85.21
7297;BME280;40758;54.038;11.684;2023-08-24T11:30:58;101481.97;;;27.72;74.01
7297;BME280;40758;54.038;11.684;2023-08-24T11:33:32;101485.38;;;27.69;71.22
7297;BME280;40758;54.038;11.684;2023-08-24T11:36:00;101481.47;;;28.41;71.15
7297;BME280;40758;54.038;11.684;2023-08-24T11:38:37;101490.81;;;29.02;63.42
7297;BME280;40758;54.038;11.684;2023-08-24T11:41:18;101471.91;;;29.25;51.50
7297;BME280;40758;54.038;11.684;2023-08-24T11:43:47;101485.03;;;29.16;50.63
7297;BME280;40758;54.038;11.684;2023-08-24T11:46:18;101470.91;;;29.21;57.33
7297;BME280;40758;54.038;11.684;2023-08-24T11:48:45;101471.06;;;29.42;64.98
7297;BME280;40758;54.038;11.684;2023-08-24T11:51:13;101465.97;;;29.53;62.15
7297;BME280;40758;54.038;11.684;2023-08-24T11:53:43;101456.16;;;29.85;65.02
7297;BME280;40758;54.038;11.684;2023-08-24T11:56:12;101450.31;;;29.52;53.93
7297;BME280;40758;54.038;11.684;2023-08-24T11:58:48;101434.81;;;30.10;58.26
7297;BME280;40758;54.038;11.684;2023-08-24T12:01:16;101416.25;;;30.56;49.53
7297;BME280;40758;54.038;11.684;2023-08-24T12:03:43;101428.25;;;30.65;51.74
7297;BME280;40758;54.038;11.684;2023-08-24T12:06:14;101424.75;;;30.17;47.88
7297;BME280;40758;54.038;11.684;2023-08-24T12:08:46;101410.00;;;30.59;52.04
7297;BME280;40758;54.038;11.684;2023-08-24T12:11:20;101396.66;;;30.56;52.05
7297;BME280;40758;54.038;11.684;2023-08-24T12:13:49;101404.22;;;29.96;55.85
7297;BME280;40758;54.038;11.684;2023-08-24T12:16:20;101383.88;;;29.40;51.54
7297;BME280;40758;54.038;11.684;2023-08-24T12:18:55;101398.75;;;29.70;52.06
7297;BME280;40758;54.038;11.684;2023-08-24T12:21:26;101376.28;;;29.32;57.80
7297;BME280;40758;54.038;11.684;2023-08-24T12:24:03;101395.44;;;29.12;65.72
7297;BME280;40758;54.038;11.684;2023-08-24T12:26:33;101387.34;;;29.28;60.26
7297;BME280;40758;54.038;11.684;2023-08-24T12:29:07;101366.31;;;29.05;53.27
7297;BME280;40758;54.038;11.684;2023-08-24T12:31:56;101365.53;;;29.60;51.25
7297;BME280;40758;54.038;11.684;2023-08-24T12:34:23;101366.53;;;29.55;54.66
7297;BME280;40758;54.038;11.684;2023-08-24T12:36:50;101384.41;;;28.99;55.08
7297;BME280;40758;54.038;11.684;2023-08-24T12:39:21;101334.50;;;29.35;53.09
7297;BME280;40758;54.038;11.684;2023-08-24T12:41:48;101354.66;;;29.67;57.49
7297;BME280;40758;54.038;11.684;2023-08-24T12:44:17;101328.47;;;29.72;50.62
7297;BME280;40758;54.038;11.684;2023-08-24T12:46:49;101300.78;;;29.32;59.32
7297;BME280;40758;54.038;11.684;2023-08-24T12:49:16;101343.63;;;28.63;75.58
7297;BME280;40758;54.038;11.684;2023-08-24T12:51:43;101320.31;;;28.42;75.07
7297;BME280;40758;54.038;11.684;2023-08-24T12:54:12;101323.13;;;28.59;71.17
7297;BME280;40758;54.038;11.684;2023-08-24T12:56:39;101326.72;;;28.68;72.10
7297;BME280;40758;54.038;11.684;2023-08-24T12:59:07;101345.94;;;28.96;71.44
7297;BME280;40758;54.038;11.684;2023-08-24T13:01:39;101312.59;;;28.47;75.30
7297;BME280;40758;54.038;11.684;2023-08-24T13:04:06;101331.66;;;28.71;78.76
7297;BME280;40758;54.038;11.684;2023-08-24T13:06:34;101329.19;;;28.44;78.32
7297;BME280;40758;54.038;11.684;2023-08-24T13:09:07;101353.84;;;28.42;78.84
7297;BME280;40758;54.038;11.684;2023-08-24T13:11:34;101334.44;;;28.97;70.42